sensor_id;sensor_type;location;lat;lon;timestamp;P1;durP1;ratioP1;P2;durP2;ratioP2
37983;SDS011;64625;50.882;4.376;2023-06-14T00:01:50;13.48;;;6.10;;
37983;SDS011;64625;50.882;4.376;2023-06-14T00:04:16;8.82;;;5.35;;
37983;SDS011;64625;50.882;4.376;2023-06-14T00:06:42;12.25;;;5.78;;
37983;SDS011;64625;50.882;4.376;2023-06-14T00:09:10;14.13;;;6.13;;
37983;SDS011;64625;50.882;4.376;2023-06-14T00:11:38;8.30;;;5.65;;
37983;SDS011;64625;50.882;4.376;2023-06-14T00:14:06;17.77;;;6.60;;
37983;SDS011;64625;50.882;4.376;2023-06-14T00:16:32;20.30;;;6.50;;
37983;SDS011;64625;50.882;4.376;2023-06-14T00:19:00;12.00;;;5.40;;
37983;SDS011;64625;50.882;4.376;2023-06-14T00:21:30;10.63;;;4.65;;
37983;SDS011;64625;50.882;4.376;2023-06-14T00:24:00;21.83;;;5.80;;
37983;SDS011;64625;50.882;4.376;2023-06-14T00:26:26;13.35;;;5.30;;
37983;SDS011;64625;50.882;4.376;2023-06-14T00:28:55;9.55;;;5.75;;
37983;SDS011;64625;50.882;4.376;2023-06-14T00:31:22;17.70;;;6.10;;
37983;SDS011;64625;50.882;4.376;2023-06-14T00:33:48;16.60;;;5.50;;
37983;SDS011;64625;50.882;4.376;2023-06-14T00:36:14;13.05;;;5.82;;
37983;SDS011;64625;50.882;4.376;2023-06-14T00:38:39;11.82;;;5.22;;
37983;SDS011;64625;50.882;4.376;2023-06-14T00:41:05;8.18;;;5.45;;
37983;SDS011;64625;50.882;4.376;2023-06-14T00:43:31;14.85;;;5.90;;
37983;SDS011;64625;50.882;4.376;2023-06-14T00:45:57;12.93;;;5.75;;
37983;SDS011;64625;50.882;4.376;2023-06-14T00:48:23;14.07;;;6.18;;
37983;SDS011;64625;50.882;4.376;2023-06-14T00:50:50;12.77;;;6.63;;
37983;SDS011;64625;50.882;4.376;2023-06-14T00:53:17;12.73;;;6.28;;
37983;SDS011;64625;50.882;4.376;2023-06-14T00:55:45;10.57;;;6.18;;
37983;SDS011;64625;50.882;4.376;2023-06-14T00:58:12;6.93;;;5.45;;
37983;SDS011;64625;50.882;4.376;2023-06-14T01:00:39;9.25;;;5.10;;
37983;SDS011;64625;50.882;4.376;2023-06-14T01:03:04;10.38;;;6.13;;
37983;SDS011;64625;50.882;4.376;2023-06-14T01:05:31;12.23;;;5.55;;
37983;SDS011;64625;50.882;4.376;2023-06-14T01:15:54;6.47;;;5.43;;
37983;SDS011;64625;50.882;4.376;2023-06-14T01:18:21;10.23;;;5.28;;
37983;SDS011;64625;50.882;4.376;2023-06-14T01:20:49;15.45;;;7.07;;
37983;SDS011;64625;50.882;4.376;2023-06-14T01:23:18;14.70;;;6.13;;
37983;SDS011;64625;50.882;4.376;2023-06-14T01:25:46;9.90;;;6.77;;
37983;SDS011;64625;50.882;4.376;2023-06-14T01:28:13;12.02;;;6.15;;
37983;SDS011;64625;50.882;4.376;2023-06-14T01:30:42;7.97;;;5.82;;
37983;SDS011;64625;50.882;4.376;2023-06-14T01:33:14;10.32;;;5.78;;
37983;SDS011;64625;50.882;4.376;2023-06-14T01:35:44;11.82;;;5.90;;
37983;SDS011;64625;50.882;4.376;2023-06-14T01:40:43;33.70;;;6.75;;
37983;SDS011;64625;50.882;4.376;2023-06-14T01:43:10;11.95;;;6.25;;
37983;SDS011;64625;50.882;4.376;2023-06-14T01:45:39;12.63;;;6.28;;
37983;SDS011;64625;50.882;4.376;2023-06-14T01:48:10;10.75;;;6.20;;
37983;SDS011;64625;50.882;4.376;2023-06-14T01:50:37;15.85;;;5.78;;
37983;SDS011;64625;50.882;4.376;2023-06-14T01:53:03;11.05;;;6.68;;
37983;SDS011;64625;50.882;4.376;2023-06-14T01:55:33;11.40;;;7.20;;
37983;SDS011;64625;50.882;4.376;2023-06-14T01:58:02;8.80;;;6.55;;
37983;SDS011;64625;50.882;4.376;2023-06-14T02:00:28;15.32;;;6.10;;
37983;SDS011;64625;50.882;4.376;2023-06-14T02:02:54;14.52;;;5.95;;
37983;SDS011;64625;50.882;4.376;2023-06-14T02:05:22;11.00;;;7.00;;
37983;SDS011;64625;50.882;4.376;2023-06-14T02:07:48;12.02;;;6.18;;
37983;SDS011;64625;50.882;4.376;2023-06-14T02:10:14;14.02;;;6.72;;
37983;SDS011;64625;50.882;4.376;2023-06-14T02:12:40;13.93;;;7.85;;
37983;SDS011;64625;50.882;4.376;2023-06-14T02:15:06;9.10;;;6.78;;
37983;SDS011;64625;50.882;4.376;2023-06-14T02:17:33;13.82;;;6.90;;
37983;SDS011;64625;50.882;4.376;2023-06-14T02:20:02;10.52;;;6.68;;
37983;SDS011;64625;50.882;4.376;2023-06-14T02:22:30;10.45;;;7.10;;
37983;SDS011;64625;50.882;4.376;2023-06-14T02:24:56;15.50;;;7.95;;
37983;SDS011;64625;50.882;4.376;2023-06-14T02:27:21;10.30;;;7.30;;
37983;SDS011;64625;50.882;4.376;2023-06-14T02:29:47;18.83;;;6.65;;
37983;SDS011;64625;50.882;4.376;2023-06-14T02:32:13;18.88;;;7.75;;
37983;SDS011;64625;50.882;4.376;2023-06-14T02:34:38;9.63;;;6.68;;
37983;SDS011;64625;50.882;4.376;2023-06-14T02:37:06;20.98;;;8.40;;
37983;SDS011;64625;50.882;4.376;2023-06-14T02:39:32;10.75;;;7.47;;
37983;SDS011;64625;50.882;4.376;2023-06-14T02:41:58;17.05;;;7.70;;
37983;SDS011;64625;50.882;4.376;2023-06-14T02:44:24;10.45;;;6.97;;
37983;SDS011;64625;50.882;4.376;2023-06-14T02:46:52;12.27;;;7.65;;
37983;SDS011;64625;50.882;4.376;2023-06-14T02:49:18;19.10;;;6.47;;
37983;SDS011;64625;50.882;4.376;2023-06-14T02:51:44;13.63;;;8.02;;
37983;SDS011;64625;50.882;4.376;2023-06-14T02:54:10;10.27;;;6.60;;
37983;SDS011;64625;50.882;4.376;2023-06-14T02:56:36;12.35;;;6.75;;
37983;SDS011;64625;50.882;4.376;2023-06-14T02:59:02;19.58;;;7.88;;
37983;SDS011;64625;50.882;4.376;2023-06-14T03:01:27;10.80;;;7.57;;
37983;SDS011;64625;50.882;4.376;2023-06-14T03:04:05;15.85;;;9.13;;
37983;SDS011;64625;50.882;4.376;2023-06-14T03:06:31;16.13;;;7.68;;
37983;SDS011;64625;50.882;4.376;2023-06-14T03:08:58;12.40;;;7.38;;
37983;SDS011;64625;50.882;4.376;2023-06-14T03:11:29;14.23;;;8.20;;
37983;SDS011;64625;50.882;4.376;2023-06-14T03:13:56;18.15;;;7.75;;
37983;SDS011;64625;50.882;4.376;2023-06-14T03:16:22;14.63;;;7.70;;
37983;SDS011;64625;50.882;4.376;2023-06-14T03:18:50;17.30;;;6.47;;
37983;SDS011;64625;50.882;4.376;2023-06-14T03:21:17;11.00;;;7.47;;
37983;SDS011;64625;50.882;4.376;2023-06-14T03:23:45;15.93;;;7.32;;
37983;SDS011;64625;50.882;4.376;2023-06-14T03:26:12;15.38;;;7.97;;
37983;SDS011;64625;50.882;4.376;2023-06-14T03:28:39;15.23;;;6.85;;
37983;SDS011;64625;50.882;4.376;2023-06-14T03:31:05;27.58;;;8.40;;
37983;SDS011;64625;50.882;4.376;2023-06-14T03:33:31;22.42;;;8.65;;
37983;SDS011;64625;50.882;4.376;2023-06-14T03:36:01;13.25;;;7.53;;
37983;SDS011;64625;50.882;4.376;2023-06-14T03:38:27;16.23;;;8.52;;
37983;SDS011;64625;50.882;4.376;2023-06-14T03:40:53;22.00;;;8.82;;
37983;SDS011;64625;50.882;4.376;2023-06-14T03:43:18;17.25;;;8.50;;
37983;SDS011;64625;50.882;4.376;2023-06-14T03:45:44;17.05;;;7.90;;
37983;SDS011;64625;50.882;4.376;2023-06-14T03:48:10;17.90;;;7.60;;
37983;SDS011;64625;50.882;4.376;2023-06-14T03:50:36;13.98;;;8.48;;
37983;SDS011;64625;50.882;4.376;2023-06-14T03:53:05;15.82;;;8.07;;
37983;SDS011;64625;50.882;4.376;2023-06-14T03:55:31;14.45;;;7.30;;
37983;SDS011;64625;50.882;4.376;2023-06-14T03:57:58;16.92;;;7.85;;
37983;SDS011;64625;50.882;4.376;2023-06-14T04:00:24;20.23;;;8.13;;
37983;SDS011;64625;50.882;4.376;2023-06-14T04:02:50;15.43;;;8.13;;
37983;SDS011;64625;50.882;4.376;2023-06-14T04:05:16;17.15;;;8.43;;
37983;SDS011;64625;50.882;4.376;2023-06-14T04:07:44;22.70;;;8.25;;
37983;SDS011;64625;50.882;4.376;2023-06-14T04:10:11;13.25;;;7.72;;
37983;SDS011;64625;50.882;4.376;2023-06-14T04:12:38;19.30;;;8.65;;
37983;SDS011;64625;50.882;4.376;2023-06-14T04:15:04;20.83;;;9.00;;
37983;SDS011;64625;50.882;4.376;2023-06-14T04:17:33;20.38;;;8.40;;
37983;SDS011;64625;50.882;4.376;2023-06-14T04:20:00;18.40;;;8.95;;
37983;SDS011;64625;50.882;4.376;2023-06-14T04:22:26;19.85;;;8.77;;
37983;SDS011;64625;50.882;4.376;2023-06-14T04:24:56;23.77;;;8.27;;
37983;SDS011;64625;50.882;4.376;2023-06-14T04:27:23;27.92;;;7.72;;
37983;SDS011;64625;50.882;4.376;2023-06-14T04:29:56;29.83;;;8.00;;
37983;SDS011;64625;50.882;4.376;2023-06-14T04:32:26;23.80;;;7.55;;
37983;SDS011;64625;50.882;4.376;2023-06-14T04:34:55;17.80;;;8.57;;
37983;SDS011;64625;50.882;4.376;2023-06-14T04:37:22;15.85;;;8.00;;
37983;SDS011;64625;50.882;4.376;2023-06-14T04:39:49;21.60;;;8.07;;
37983;SDS011;64625;50.882;4.376;2023-06-14T04:42:15;36.88;;;9.63;;
37983;SDS011;64625;50.882;4.376;2023-06-14T04:44:42;32.30;;;9.05;;
37983;SDS011;64625;50.882;4.376;2023-06-14T04:47:17;23.05;;;8.57;;
37983;SDS011;64625;50.882;4.376;2023-06-14T04:49:43;31.58;;;9.43;;
37983;SDS011;64625;50.882;4.376;2023-06-14T04:52:09;24.70;;;7.82;;
37983;SDS011;64625;50.882;4.376;2023-06-14T04:54:38;22.20;;;9.50;;
37983;SDS011;64625;50.882;4.376;2023-06-14T04:57:08;33.80;;;9.02;;
37983;SDS011;64625;50.882;4.376;2023-06-14T04:59:42;41.08;;;10.18;;
37983;SDS011;64625;50.882;4.376;2023-06-14T05:02:09;29.50;;;9.40;;
37983;SDS011;64625;50.882;4.376;2023-06-14T05:04:36;36.97;;;11.65;;
37983;SDS011;64625;50.882;4.376;2023-06-14T05:07:06;12.27;;;7.32;;
37983;SDS011;64625;50.882;4.376;2023-06-14T05:09:33;36.58;;;9.38;;
37983;SDS011;64625;50.882;4.376;2023-06-14T05:11:59;24.88;;;10.05;;
37983;SDS011;64625;50.882;4.376;2023-06-14T05:14:25;17.85;;;8.27;;
37983;SDS011;64625;50.882;4.376;2023-06-14T05:16:52;19.35;;;9.45;;
37983;SDS011;64625;50.882;4.376;2023-06-14T05:19:18;23.50;;;7.53;;
37983;SDS011;64625;50.882;4.376;2023-06-14T05:21:45;40.03;;;9.50;;
37983;SDS011;64625;50.882;4.376;2023-06-14T05:24:13;35.30;;;10.77;;
37983;SDS011;64625;50.882;4.376;2023-06-14T05:26:39;28.20;;;8.30;;
37983;SDS011;64625;50.882;4.376;2023-06-14T05:29:05;29.15;;;8.73;;
37983;SDS011;64625;50.882;4.376;2023-06-14T05:31:31;28.55;;;9.75;;
37983;SDS011;64625;50.882;4.376;2023-06-14T05:33:57;33.00;;;10.10;;
37983;SDS011;64625;50.882;4.376;2023-06-14T05:36:23;52.47;;;9.85;;
37983;SDS011;64625;50.882;4.376;2023-06-14T05:38:50;15.20;;;8.20;;
37983;SDS011;64625;50.882;4.376;2023-06-14T05:41:16;16.35;;;7.72;;
37983;SDS011;64625;50.882;4.376;2023-06-14T05:43:42;16.20;;;8.60;;
37983;SDS011;64625;50.882;4.376;2023-06-14T05:46:08;14.60;;;8.20;;
37983;SDS011;64625;50.882;4.376;2023-06-14T05:48:34;21.75;;;7.97;;
37983;SDS011;64625;50.882;4.376;2023-06-14T05:51:00;21.58;;;7.85;;
37983;SDS011;64625;50.882;4.376;2023-06-14T05:53:25;22.80;;;8.30;;
37983;SDS011;64625;50.882;4.376;2023-06-14T05:55:51;19.15;;;7.72;;
37983;SDS011;64625;50.882;4.376;2023-06-14T05:58:21;12.40;;;8.13;;
37983;SDS011;64625;50.882;4.376;2023-06-14T06:00:47;16.55;;;8.20;;
37983;SDS011;64625;50.882;4.376;2023-06-14T06:03:13;18.58;;;8.48;;
37983;SDS011;64625;50.882;4.376;2023-06-14T06:05:39;12.10;;;8.25;;
37983;SDS011;64625;50.882;4.376;2023-06-14T06:08:05;19.40;;;8.93;;
37983;SDS011;64625;50.882;4.376;2023-06-14T06:10:30;20.88;;;8.27;;
37983;SDS011;64625;50.882;4.376;2023-06-14T06:13:00;15.20;;;10.10;;
37983;SDS011;64625;50.882;4.376;2023-06-14T06:15:25;10.95;;;7.18;;
37983;SDS011;64625;50.882;4.376;2023-06-14T06:17:51;17.83;;;7.28;;
37983;SDS011;64625;50.882;4.376;2023-06-14T06:20:17;26.70;;;8.73;;
37983;SDS011;64625;50.882;4.376;2023-06-14T06:22:43;29.95;;;9.73;;
37983;SDS011;64625;50.882;4.376;2023-06-14T06:25:09;22.50;;;7.82;;
37983;SDS011;64625;50.882;4.376;2023-06-14T06:27:35;36.42;;;9.68;;
37983;SDS011;64625;50.882;4.376;2023-06-14T06:30:03;34.83;;;8.77;;
37983;SDS011;64625;50.882;4.376;2023-06-14T06:32:30;13.88;;;8.32;;
37983;SDS011;64625;50.882;4.376;2023-06-14T06:34:56;14.73;;;7.93;;
37983;SDS011;64625;50.882;4.376;2023-06-14T06:37:22;23.40;;;7.82;;
37983;SDS011;64625;50.882;4.376;2023-06-14T06:39:48;36.50;;;9.45;;
37983;SDS011;64625;50.882;4.376;2023-06-14T06:42:13;27.30;;;8.25;;
37983;SDS011;64625;50.882;4.376;2023-06-14T06:44:40;26.48;;;7.53;;
37983;SDS011;64625;50.882;4.376;2023-06-14T06:47:06;33.03;;;8.50;;
37983;SDS011;64625;50.882;4.376;2023-06-14T06:49:31;41.42;;;10.00;;
37983;SDS011;64625;50.882;4.376;2023-06-14T06:52:01;27.13;;;8.30;;
37983;SDS011;64625;50.882;4.376;2023-06-14T06:54:32;21.05;;;8.77;;
37983;SDS011;64625;50.882;4.376;2023-06-14T06:56:58;44.60;;;10.48;;
37983;SDS011;64625;50.882;4.376;2023-06-14T06:59:25;35.40;;;8.57;;
37983;SDS011;64625;50.882;4.376;2023-06-14T07:01:50;39.45;;;10.45;;
37983;SDS011;64625;50.882;4.376;2023-06-14T07:04:16;28.95;;;8.70;;
37983;SDS011;64625;50.882;4.376;2023-06-14T07:06:42;52.70;;;10.18;;
37983;SDS011;64625;50.882;4.376;2023-06-14T07:09:08;19.08;;;8.30;;
37983;SDS011;64625;50.882;4.376;2023-06-14T07:11:40;21.33;;;7.78;;
37983;SDS011;64625;50.882;4.376;2023-06-14T07:14:11;41.75;;;8.75;;
37983;SDS011;64625;50.882;4.376;2023-06-14T07:16:37;22.23;;;6.63;;
37983;SDS011;64625;50.882;4.376;2023-06-14T07:19:02;26.73;;;7.03;;
37983;SDS011;64625;50.882;4.376;2023-06-14T07:21:28;17.98;;;6.95;;
37983;SDS011;64625;50.882;4.376;2023-06-14T07:23:55;23.80;;;6.22;;
37983;SDS011;64625;50.882;4.376;2023-06-14T07:26:21;14.75;;;8.02;;
37983;SDS011;64625;50.882;4.376;2023-06-14T07:28:48;18.10;;;7.57;;
37983;SDS011;64625;50.882;4.376;2023-06-14T07:31:17;19.38;;;7.20;;
37983;SDS011;64625;50.882;4.376;2023-06-14T07:33:44;22.30;;;7.15;;
37983;SDS011;64625;50.882;4.376;2023-06-14T07:36:10;10.48;;;6.05;;
37983;SDS011;64625;50.882;4.376;2023-06-14T07:38:36;12.07;;;5.80;;
37983;SDS011;64625;50.882;4.376;2023-06-14T07:41:02;9.15;;;5.95;;
37983;SDS011;64625;50.882;4.376;2023-06-14T07:43:28;18.23;;;6.75;;
37983;SDS011;64625;50.882;4.376;2023-06-14T07:45:54;11.30;;;6.22;;
37983;SDS011;64625;50.882;4.376;2023-06-14T07:48:20;10.88;;;6.32;;
37983;SDS011;64625;50.882;4.376;2023-06-14T07:50:47;16.63;;;7.18;;
37983;SDS011;64625;50.882;4.376;2023-06-14T07:53:13;23.05;;;6.93;;
37983;SDS011;64625;50.882;4.376;2023-06-14T07:55:39;12.95;;;5.95;;
37983;SDS011;64625;50.882;4.376;2023-06-14T07:58:08;17.25;;;5.78;;
37983;SDS011;64625;50.882;4.376;2023-06-14T08:00:33;18.13;;;6.22;;
37983;SDS011;64625;50.882;4.376;2023-06-14T08:03:00;16.00;;;6.60;;
37983;SDS011;64625;50.882;4.376;2023-06-14T08:05:26;24.40;;;7.13;;
37983;SDS011;64625;50.882;4.376;2023-06-14T08:07:53;28.55;;;5.95;;
37983;SDS011;64625;50.882;4.376;2023-06-14T08:10:19;22.65;;;6.30;;
37983;SDS011;64625;50.882;4.376;2023-06-14T08:12:46;10.40;;;6.03;;
37983;SDS011;64625;50.882;4.376;2023-06-14T08:15:12;15.85;;;6.18;;
37983;SDS011;64625;50.882;4.376;2023-06-14T08:17:42;17.05;;;5.82;;
37983;SDS011;64625;50.882;4.376;2023-06-14T08:20:09;21.25;;;5.95;;
37983;SDS011;64625;50.882;4.376;2023-06-14T08:22:37;11.88;;;5.28;;
37983;SDS011;64625;50.882;4.376;2023-06-14T08:25:03;18.00;;;5.97;;
37983;SDS011;64625;50.882;4.376;2023-06-14T08:27:30;17.15;;;4.35;;
37983;SDS011;64625;50.882;4.376;2023-06-14T08:29:56;23.30;;;6.13;;
37983;SDS011;64625;50.882;4.376;2023-06-14T08:32:22;16.35;;;5.55;;
37983;SDS011;64625;50.882;4.376;2023-06-14T08:34:48;7.80;;;5.15;;
37983;SDS011;64625;50.882;4.376;2023-06-14T08:37:16;11.07;;;5.50;;
37983;SDS011;64625;50.882;4.376;2023-06-14T08:39:42;19.60;;;5.88;;
37983;SDS011;64625;50.882;4.376;2023-06-14T08:42:09;14.45;;;6.05;;
37983;SDS011;64625;50.882;4.376;2023-06-14T08:44:36;17.25;;;5.57;;
37983;SDS011;64625;50.882;4.376;2023-06-14T08:47:02;27.30;;;6.40;;
37983;SDS011;64625;50.882;4.376;2023-06-14T08:49:31;19.63;;;5.82;;
37983;SDS011;64625;50.882;4.376;2023-06-14T08:52:00;15.00;;;5.32;;
37983;SDS011;64625;50.882;4.376;2023-06-14T08:54:29;10.82;;;5.60;;
37983;SDS011;64625;50.882;4.376;2023-06-14T08:56:57;12.75;;;5.22;;
37983;SDS011;64625;50.882;4.376;2023-06-14T08:59:27;25.27;;;6.05;;
37983;SDS011;64625;50.882;4.376;2023-06-14T09:01:59;12.15;;;5.50;;
37983;SDS011;64625;50.882;4.376;2023-06-14T09:04:28;14.05;;;6.40;;
37983;SDS011;64625;50.882;4.376;2023-06-14T09:06:57;11.60;;;5.32;;
37983;SDS011;64625;50.882;4.376;2023-06-14T09:09:24;13.32;;;5.57;;
37983;SDS011;64625;50.882;4.376;2023-06-14T09:11:54;16.90;;;5.80;;
37983;SDS011;64625;50.882;4.376;2023-06-14T09:14:23;21.10;;;6.28;;
37983;SDS011;64625;50.882;4.376;2023-06-14T09:16:53;12.27;;;5.18;;
37983;SDS011;64625;50.882;4.376;2023-06-14T09:19:24;12.85;;;5.57;;
37983;SDS011;64625;50.882;4.376;2023-06-14T09:21:59;10.30;;;5.18;;
37983;SDS011;64625;50.882;4.376;2023-06-14T09:24:25;18.92;;;5.95;;
37983;SDS011;64625;50.882;4.376;2023-06-14T09:26:51;16.25;;;5.25;;
37983;SDS011;64625;50.882;4.376;2023-06-14T09:29:18;16.48;;;5.85;;
37983;SDS011;64625;50.882;4.376;2023-06-14T09:31:47;19.27;;;5.88;;
37983;SDS011;64625;50.882;4.376;2023-06-14T09:34:13;7.70;;;5.00;;
37983;SDS011;64625;50.882;4.376;2023-06-14T09:36:47;17.02;;;5.50;;
37983;SDS011;64625;50.882;4.376;2023-06-14T09:39:16;22.20;;;7.03;;
37983;SDS011;64625;50.882;4.376;2023-06-14T09:41:43;13.02;;;6.07;;
37983;SDS011;64625;50.882;4.376;2023-06-14T09:44:09;14.60;;;6.57;;
37983;SDS011;64625;50.882;4.376;2023-06-14T09:46:37;11.13;;;5.22;;
37983;SDS011;64625;50.882;4.376;2023-06-14T09:49:03;14.65;;;6.13;;
37983;SDS011;64625;50.882;4.376;2023-06-14T09:51:30;14.90;;;5.85;;
37983;SDS011;64625;50.882;4.376;2023-06-14T09:54:00;12.18;;;5.68;;
37983;SDS011;64625;50.882;4.376;2023-06-14T09:59:09;12.20;;;6.28;;
37983;SDS011;64625;50.882;4.376;2023-06-14T10:01:35;11.25;;;5.50;;
37983;SDS011;64625;50.882;4.376;2023-06-14T10:04:09;17.85;;;5.50;;
37983;SDS011;64625;50.882;4.376;2023-06-14T10:06:37;8.35;;;5.00;;
37983;SDS011;64625;50.882;4.376;2023-06-14T10:09:10;7.47;;;4.70;;
37983;SDS011;64625;50.882;4.376;2023-06-14T10:11:37;14.02;;;5.45;;
37983;SDS011;64625;50.882;4.376;2023-06-14T10:14:13;8.27;;;5.15;;
37983;SDS011;64625;50.882;4.376;2023-06-14T10:16:45;20.30;;;4.75;;
37983;SDS011;64625;50.882;4.376;2023-06-14T10:22:08;9.20;;;4.88;;
37983;SDS011;64625;50.882;4.376;2023-06-14T10:24:45;7.15;;;5.05;;
37983;SDS011;64625;50.882;4.376;2023-06-14T10:27:13;15.68;;;4.93;;
37983;SDS011;64625;50.882;4.376;2023-06-14T10:32:20;13.13;;;5.53;;
37983;SDS011;64625;50.882;4.376;2023-06-14T10:34:52;7.00;;;4.90;;
37983;SDS011;64625;50.882;4.376;2023-06-14T10:37:42;7.15;;;4.22;;
37983;SDS011;64625;50.882;4.376;2023-06-14T10:40:29;9.80;;;6.10;;
37983;SDS011;64625;50.882;4.376;2023-06-14T10:42:56;13.98;;;4.65;;
37983;SDS011;64625;50.882;4.376;2023-06-14T10:45:25;12.57;;;4.90;;
37983;SDS011;64625;50.882;4.376;2023-06-14T10:47:57;11.32;;;4.18;;
37983;SDS011;64625;50.882;4.376;2023-06-14T10:50:27;11.13;;;4.38;;
37983;SDS011;64625;50.882;4.376;2023-06-14T10:52:54;13.98;;;4.45;;
37983;SDS011;64625;50.882;4.376;2023-06-14T10:55:24;7.40;;;4.07;;
37983;SDS011;64625;50.882;4.376;2023-06-14T10:58:05;13.30;;;4.35;;
37983;SDS011;64625;50.882;4.376;2023-06-14T11:00:31;13.68;;;5.05;;
37983;SDS011;64625;50.882;4.376;2023-06-14T11:11:08;7.25;;;3.70;;
37983;SDS011;64625;50.882;4.376;2023-06-14T11:13:38;15.38;;;3.70;;
37983;SDS011;64625;50.882;4.376;2023-06-14T11:16:15;5.22;;;3.28;;
37983;SDS011;64625;50.882;4.376;2023-06-14T11:18:42;6.68;;;3.60;;
37983;SDS011;64625;50.882;4.376;2023-06-14T11:21:09;9.88;;;3.88;;
37983;SDS011;64625;50.882;4.376;2023-06-14T11:23:35;5.68;;;3.33;;
37983;SDS011;64625;50.882;4.376;2023-06-14T11:26:01;6.95;;;3.97;;
37983;SDS011;64625;50.882;4.376;2023-06-14T11:28:39;15.57;;;5.38;;
37983;SDS011;64625;50.882;4.376;2023-06-14T11:31:10;16.92;;;4.18;;
37983;SDS011;64625;50.882;4.376;2023-06-14T11:33:36;7.45;;;3.92;;
37983;SDS011;64625;50.882;4.376;2023-06-14T11:36:03;18.77;;;6.70;;
37983;SDS011;64625;50.882;4.376;2023-06-14T11:38:34;6.95;;;4.32;;
37983;SDS011;64625;50.882;4.376;2023-06-14T11:41:02;11.05;;;4.32;;
37983;SDS011;64625;50.882;4.376;2023-06-14T11:43:28;7.93;;;3.88;;
37983;SDS011;64625;50.882;4.376;2023-06-14T11:45:54;7.60;;;4.00;;
37983;SDS011;64625;50.882;4.376;2023-06-14T11:48:20;12.57;;;4.10;;
37983;SDS011;64625;50.882;4.376;2023-06-14T11:50:49;12.73;;;3.88;;
37983;SDS011;64625;50.882;4.376;2023-06-14T11:53:16;11.65;;;4.75;;
37983;SDS011;64625;50.882;4.376;2023-06-14T11:55:43;6.90;;;4.07;;
37983;SDS011;64625;50.882;4.376;2023-06-14T11:58:11;9.75;;;4.25;;
37983;SDS011;64625;50.882;4.376;2023-06-14T12:00:37;11.30;;;3.17;;
37983;SDS011;64625;50.882;4.376;2023-06-14T12:03:03;6.57;;;3.83;;
37983;SDS011;64625;50.882;4.376;2023-06-14T12:05:29;9.80;;;4.00;;
37983;SDS011;64625;50.882;4.376;2023-06-14T12:08:03;13.00;;;6.20;;
37983;SDS011;64625;50.882;4.376;2023-06-14T12:10:39;9.52;;;3.67;;
37983;SDS011;64625;50.882;4.376;2023-06-14T12:13:08;11.10;;;3.65;;
37983;SDS011;64625;50.882;4.376;2023-06-14T12:15:35;8.35;;;3.50;;
37983;SDS011;64625;50.882;4.376;2023-06-14T12:18:04;15.95;;;3.70;;
37983;SDS011;64625;50.882;4.376;2023-06-14T12:20:33;15.07;;;4.03;;
37983;SDS011;64625;50.882;4.376;2023-06-14T12:23:03;7.28;;;3.88;;
37983;SDS011;64625;50.882;4.376;2023-06-14T12:25:33;12.15;;;4.47;;
37983;SDS011;64625;50.882;4.376;2023-06-14T12:28:07;7.45;;;2.80;;
37983;SDS011;64625;50.882;4.376;2023-06-14T12:30:35;11.13;;;5.00;;
37983;SDS011;64625;50.882;4.376;2023-06-14T12:33:02;8.60;;;3.50;;
37983;SDS011;64625;50.882;4.376;2023-06-14T12:35:29;8.63;;;5.22;;
37983;SDS011;64625;50.882;4.376;2023-06-14T12:37:55;4.78;;;3.67;;
37983;SDS011;64625;50.882;4.376;2023-06-14T12:40:21;8.82;;;3.47;;
37983;SDS011;64625;50.882;4.376;2023-06-14T12:42:47;9.18;;;3.10;;
37983;SDS011;64625;50.882;4.376;2023-06-14T12:45:13;5.50;;;3.30;;
37983;SDS011;64625;50.882;4.376;2023-06-14T12:47:42;12.57;;;4.55;;
37983;SDS011;64625;50.882;4.376;2023-06-14T12:50:08;9.43;;;3.60;;
37983;SDS011;64625;50.882;4.376;2023-06-14T12:52:34;9.07;;;3.45;;
37983;SDS011;64625;50.882;4.376;2023-06-14T12:55:04;15.75;;;3.45;;
37983;SDS011;64625;50.882;4.376;2023-06-14T12:57:30;9.90;;;3.42;;
37983;SDS011;64625;50.882;4.376;2023-06-14T12:59:57;12.88;;;6.15;;
37983;SDS011;64625;50.882;4.376;2023-06-14T13:02:23;12.48;;;3.65;;
37983;SDS011;64625;50.882;4.376;2023-06-14T13:04:49;15.43;;;4.38;;
37983;SDS011;64625;50.882;4.376;2023-06-14T13:07:16;8.32;;;2.92;;
37983;SDS011;64625;50.882;4.376;2023-06-14T13:09:42;11.07;;;3.50;;
37983;SDS011;64625;50.882;4.376;2023-06-14T13:12:09;8.18;;;3.53;;
37983;SDS011;64625;50.882;4.376;2023-06-14T13:14:39;9.32;;;2.90;;
37983;SDS011;64625;50.882;4.376;2023-06-14T13:17:07;5.07;;;3.75;;
37983;SDS011;64625;50.882;4.376;2023-06-14T13:19:34;12.57;;;4.28;;
37983;SDS011;64625;50.882;4.376;2023-06-14T13:22:00;12.50;;;3.17;;
37983;SDS011;64625;50.882;4.376;2023-06-14T13:24:26;6.22;;;2.60;;
37983;SDS011;64625;50.882;4.376;2023-06-14T13:26:55;16.80;;;3.38;;
37983;SDS011;64625;50.882;4.376;2023-06-14T13:29:22;11.73;;;4.03;;
37983;SDS011;64625;50.882;4.376;2023-06-14T13:31:49;8.23;;;2.70;;
37983;SDS011;64625;50.882;4.376;2023-06-14T13:34:15;7.32;;;3.15;;
37983;SDS011;64625;50.882;4.376;2023-06-14T13:36:40;10.18;;;3.03;;
37983;SDS011;64625;50.882;4.376;2023-06-14T13:39:06;5.70;;;2.58;;
37983;SDS011;64625;50.882;4.376;2023-06-14T13:41:32;4.97;;;2.70;;
37983;SDS011;64625;50.882;4.376;2023-06-14T13:44:00;11.43;;;3.13;;
37983;SDS011;64625;50.882;4.376;2023-06-14T13:46:26;4.95;;;2.95;;
37983;SDS011;64625;50.882;4.376;2023-06-14T13:48:52;9.68;;;3.25;;
37983;SDS011;64625;50.882;4.376;2023-06-14T13:51:17;5.35;;;2.72;;
37983;SDS011;64625;50.882;4.376;2023-06-14T13:53:50;4.75;;;2.70;;
37983;SDS011;64625;50.882;4.376;2023-06-14T13:56:18;8.02;;;2.55;;
37983;SDS011;64625;50.882;4.376;2023-06-14T13:58:44;4.93;;;2.92;;
37983;SDS011;64625;50.882;4.376;2023-06-14T14:01:10;11.07;;;3.42;;
37983;SDS011;64625;50.882;4.376;2023-06-14T14:03:37;4.30;;;2.95;;
37983;SDS011;64625;50.882;4.376;2023-06-14T14:06:03;6.05;;;2.33;;
37983;SDS011;64625;50.882;4.376;2023-06-14T14:08:30;4.93;;;2.33;;
37983;SDS011;64625;50.882;4.376;2023-06-14T14:10:56;9.68;;;3.33;;
37983;SDS011;64625;50.882;4.376;2023-06-14T14:13:22;4.43;;;2.28;;
37983;SDS011;64625;50.882;4.376;2023-06-14T14:15:48;12.23;;;1.95;;
37983;SDS011;64625;50.882;4.376;2023-06-14T14:18:14;4.85;;;1.90;;
37983;SDS011;64625;50.882;4.376;2023-06-14T14:20:40;5.63;;;1.85;;
37983;SDS011;64625;50.882;4.376;2023-06-14T14:23:06;6.80;;;1.70;;
37983;SDS011;64625;50.882;4.376;2023-06-14T14:25:32;6.13;;;1.50;;
37983;SDS011;64625;50.882;4.376;2023-06-14T14:27:58;4.53;;;2.20;;
37983;SDS011;64625;50.882;4.376;2023-06-14T14:30:24;9.68;;;1.90;;
37983;SDS011;64625;50.882;4.376;2023-06-14T14:32:50;8.07;;;2.10;;
37983;SDS011;64625;50.882;4.376;2023-06-14T14:35:16;7.68;;;1.95;;
37983;SDS011;64625;50.882;4.376;2023-06-14T14:37:43;5.20;;;2.22;;
37983;SDS011;64625;50.882;4.376;2023-06-14T14:40:10;3.28;;;1.52;;
37983;SDS011;64625;50.882;4.376;2023-06-14T14:42:36;2.95;;;1.50;;
37983;SDS011;64625;50.882;4.376;2023-06-14T14:45:02;4.18;;;1.80;;
37983;SDS011;64625;50.882;4.376;2023-06-14T14:47:28;3.45;;;1.40;;
37983;SDS011;64625;50.882;4.376;2023-06-14T14:49:54;8.93;;;1.65;;
37983;SDS011;64625;50.882;4.376;2023-06-14T14:52:20;8.13;;;2.05;;
37983;SDS011;64625;50.882;4.376;2023-06-14T14:54:46;2.20;;;1.42;;
37983;SDS011;64625;50.882;4.376;2023-06-14T14:57:12;5.55;;;1.38;;
37983;SDS011;64625;50.882;4.376;2023-06-14T14:59:38;2.53;;;1.52;;
37983;SDS011;64625;50.882;4.376;2023-06-14T15:02:05;7.68;;;1.90;;
37983;SDS011;64625;50.882;4.376;2023-06-14T15:04:31;2.75;;;1.73;;
37983;SDS011;64625;50.882;4.376;2023-06-14T15:06:57;6.05;;;1.90;;